Strona główna
METAR-TAF:

METAR-TAF

Lotnisko :

Port lotniczy Al-Arisz

Arisz, Egipt

Szerokość geograficzna: 31-05N, Długość geograficzna: 033-49E, wysokość: 31 m

METAR: brakujący

czas: 00:37 (22:37 UTC)

Prognoza

Raport powstał 5 godziny i 37 minut temu, godzina 17:00 UTC
Prognoza ważna od 06 godzina 18 UTC do 07 godzina 24 UTC
Wiatr 3 kt z kierunków zmiennych
Widzialność 10 km lub więcej
Rozproszone chmury na wysokości 2500 ft
Stopniowe zmiany
od 07 godzina 06 UTC do 07 godzina 08 UTC
Wiatr 8 kt od północno-północny zachód
Stopniowe zmiany
od 07 godzina 16 UTC do 07 godzina 18 UTC
Wiatr 3 kt z kierunków zmiennych

TAF: HEAR 061700Z 0618/0724 VRB03KT 9999 SCT025 BECMG 0706/0708 34008KT BECMG 0716/0718 VRB03KT

Obserwacja i prognoza pogody dla ponad 4000 lotnisk (raport METAR i TAF).

Dostępne stacje oznaczono żółtymi i czerwonymi punktami na mapie.

Najedź kursorem aby zobaczyć nazwę stacji.

Kliknij aby zobaczyć obserwacje i prognozy pogody.

Aby zmienić mapę: kliknij na zielony przycisk z czarnym krzyżykiem, aby powiększyć; na zielony przycisk z myślnikiem, aby pomniejszyć; na zielone strzałki, aby przejść do map sąsiednich.


METAR-TAF: